Terminal Aerodrome Forecast
Issued by NWS Austin/San Antonio, TX

Current Version | Previous Version | Text Only | Print | Product List | Glossary On
Versions: 1 2 3 4 5 6 7 8 9 10 11 12 13 14 15 16 17
000
FTUS44 KEWX 281727
TAFSAT
TAF
KSAT 281727Z 2818/2924 20013G23KT P6SM SKC
     FM290000 17008KT P6SM SKC
     FM291100 19004KT P6SM FEW015
     FM291600 18015KT P6SM FEW030=

USA.gov is the U.S. government's official web portal to all federal, state and local government web resources and services.